createdAt,value
2022-11-26T00:03:39.631Z,93.05
2022-11-26T00:07:50.132Z,91.60
2022-11-26T00:11:53.581Z,78.57
2022-11-26T00:16:30.646Z,89.45
2022-11-26T00:20:33.794Z,87.77
2022-11-26T00:24:38.515Z,81.80
2022-11-26T00:28:48.556Z,93.17
2022-11-26T00:32:52.060Z,96.70
2022-11-26T00:36:55.370Z,81.88
2022-11-26T00:41:00.137Z,87.30
2022-11-26T00:45:03.334Z,86.10
2022-11-26T00:49:06.457Z,88.47
2022-11-26T00:53:13.391Z,94.50
2022-11-26T00:57:17.938Z,81.50
2022-11-26T01:02:16.170Z,79.53
2022-11-26T01:06:21.733Z,74.83
2022-11-26T01:10:27.358Z,78.80
2022-11-26T01:14:31.935Z,77.50
2022-11-26T01:18:36.412Z,84.10
2022-11-26T01:23:11.519Z,74.73
2022-11-26T01:27:14.717Z,75.33
2022-11-26T01:31:21.688Z,89.30
2022-11-26T01:35:55.835Z,95.28
2022-11-26T01:39:59.074Z,95.67
2022-11-26T01:44:02.541Z,80.40
2022-11-26T01:48:23.208Z,85.13
2022-11-26T01:52:41.885Z,98.93
2022-11-26T01:56:48.536Z,95.07
2022-11-26T02:00:52.730Z,75.87
2022-11-26T02:05:27.852Z,98.47
2022-11-26T02:09:32.942Z,100.28
2022-11-26T02:13:41.168Z,88.33
2022-11-26T02:18:12.353Z,77.90
2022-11-26T02:22:30.299Z,83.25
2022-11-26T02:27:12.153Z,79.40
2022-11-26T02:31:24.611Z,86.30
2022-11-26T02:35:54.501Z,94.23
2022-11-26T02:39:58.336Z,80.30
2022-11-26T02:44:01.627Z,95.70
2022-11-26T02:48:12.437Z,93.07
2022-11-26T02:52:18.008Z,105.93
2022-11-26T02:56:23.383Z,89.70
2022-11-26T03:00:26.911Z,75.93
2022-11-26T03:04:36.060Z,61.85
2022-11-26T03:09:07.309Z,80.70
2022-11-26T03:13:10.469Z,71.60
2022-11-26T03:17:13.899Z,62.47
2022-11-26T03:21:18.484Z,51.53
2022-11-26T03:25:55.179Z,59.75
2022-11-26T03:29:58.533Z,61.20
2022-11-26T03:34:01.764Z,59.13
2022-11-26T03:38:06.457Z,70.77
2022-11-26T03:42:40.658Z,57.43
2022-11-26T03:46:43.906Z,56.23
2022-11-26T03:50:47.019Z,51.60
2022-11-26T03:55:27.353Z,54.23
2022-11-26T03:59:30.637Z,60.93
2022-11-26T04:03:33.874Z,59.10
2022-11-26T04:08:10.702Z,53.10
2022-11-26T04:12:15.226Z,48.10
2022-11-26T04:16:18.518Z,54.00
2022-11-26T04:20:21.737Z,51.20
2022-11-26T04:24:25.016Z,46.07
2022-11-26T04:28:29.482Z,49.70
2022-11-26T04:32:32.657Z,52.63
2022-11-26T04:36:35.729Z,46.70
2022-11-26T04:41:12.534Z,57.97
2022-11-26T04:45:17.321Z,50.03
2022-11-26T04:49:20.543Z,53.97
2022-11-26T04:54:00.426Z,61.50
2022-11-26T04:58:06.042Z,55.43
2022-11-26T05:02:44.878Z,54.47
2022-11-26T05:06:48.043Z,62.90
2022-11-26T05:11:24.806Z,56.53
2022-11-26T05:16:01.868Z,78.60
2022-11-26T05:20:39.057Z,57.00
2022-11-26T05:25:17.740Z,50.93
2022-11-26T05:29:20.873Z,59.40
2022-11-26T05:33:57.761Z,52.72
2022-11-26T05:38:34.583Z,71.77
2022-11-26T05:43:11.177Z,71.33
2022-11-26T05:47:15.767Z,59.60
2022-11-26T05:51:49.763Z,54.80
2022-11-26T05:55:58.079Z,66.20
2022-11-26T06:00:01.476Z,59.87
2022-11-26T06:04:06.786Z,64.20
2022-11-26T06:08:10.337Z,55.27
2022-11-26T06:12:47.329Z,56.80
2022-11-26T06:17:24.422Z,53.30
2022-11-26T06:22:03.089Z,50.87
2022-11-26T06:26:09.558Z,56.20
2022-11-26T06:30:21.489Z,60.93
2022-11-26T06:34:55.675Z,66.73
2022-11-26T06:39:00.109Z,53.67
2022-11-26T06:43:34.148Z,57.03
2022-11-26T06:48:10.930Z,63.23
2022-11-26T06:52:14.873Z,51.90
2022-11-26T06:56:51.371Z,54.63
2022-11-26T07:01:49.375Z,61.47
2022-11-26T07:06:29.540Z,62.78
2022-11-26T07:11:05.455Z,67.10
2022-11-26T07:15:09.698Z,68.60
2022-11-26T07:19:15.011Z,63.53
2022-11-26T07:23:53.617Z,71.83
2022-11-26T07:28:24.531Z,69.67
2022-11-26T07:32:27.978Z,74.65
2022-11-26T07:37:05.208Z,70.00
2022-11-26T07:49:31.899Z,83.23
2022-11-26T07:56:41.797Z,85.90
2022-11-26T08:01:16.692Z,69.10
2022-11-26T08:05:19.960Z,67.10
2022-11-26T08:17:48.832Z,53.07
2022-11-26T08:24:00.276Z,39.87
2022-11-26T08:28:03.275Z,39.45
2022-11-26T08:32:40.109Z,47.43
2022-11-26T08:36:43.381Z,34.83
2022-11-26T08:41:21.857Z,40.17
2022-11-26T08:45:24.954Z,40.47
2022-11-26T08:50:02.019Z,36.33
2022-11-26T08:54:05.589Z,96.82
2022-11-26T08:58:45.703Z,66.73
2022-11-26T09:03:19.755Z,84.00
2022-11-26T09:07:23.210Z,45.93
2022-11-26T09:12:01.140Z,38.13
2022-11-26T09:16:36.334Z,55.60
2022-11-26T09:21:09.861Z,47.58
2022-11-26T09:25:46.610Z,41.70
2022-11-26T09:30:28.587Z,33.80
2022-11-26T09:35:04.021Z,36.08
2022-11-26T09:39:37.851Z,26.02
2022-11-26T09:43:53.357Z,27.45
2022-11-26T09:47:56.718Z,31.55
2022-11-26T09:52:33.362Z,34.00
2022-11-26T09:57:18.651Z,38.77
2022-11-26T10:01:46.282Z,37.22
2022-11-26T10:06:23.051Z,34.28
2022-11-26T10:11:04.309Z,41.65
2022-11-26T10:15:44.343Z,42.20
2022-11-26T10:20:24.751Z,53.33
2022-11-26T10:24:31.475Z,38.58
2022-11-26T10:29:01.872Z,34.35
2022-11-26T10:33:44.897Z,42.80
2022-11-26T10:38:15.693Z,42.17
2022-11-26T10:42:21.468Z,33.25
2022-11-26T10:46:55.061Z,36.13
2022-11-26T10:51:16.633Z,25.25
2022-11-26T10:55:55.136Z,26.98
2022-11-26T11:00:33.850Z,22.65
2022-11-26T11:05:10.241Z,19.67
2022-11-26T11:09:27.983Z,25.63
2022-11-26T11:13:42.160Z,25.52
2022-11-26T11:17:45.753Z,24.40
2022-11-26T11:21:49.308Z,18.97
2022-11-26T11:26:02.629Z,23.58
2022-11-26T11:35:25.876Z,16.97
2022-11-26T11:40:06.256Z,13.25
2022-11-26T11:44:17.625Z,12.35
2022-11-26T11:48:49.785Z,18.30
2022-11-26T11:53:30.183Z,20.42
2022-11-26T11:58:01.671Z,19.50
2022-11-26T12:02:34.951Z,14.30
2022-11-26T12:07:12.719Z,24.50
2022-11-26T12:11:29.371Z,19.27
2022-11-26T12:15:38.442Z,16.90
2022-11-26T12:19:49.122Z,16.07
2022-11-26T12:23:57.998Z,27.73
2022-11-26T12:28:06.099Z,20.35
2022-11-26T12:32:41.194Z,17.88
2022-11-26T12:36:51.268Z,19.30
2022-11-26T12:41:20.518Z,23.73
2022-11-26T12:45:46.030Z,17.35
2022-11-26T12:50:14.279Z,22.77
2022-11-26T12:54:41.286Z,22.07
2022-11-26T12:59:19.329Z,19.97
2022-11-26T13:03:59.388Z,18.08
2022-11-26T13:08:42.148Z,23.17
2022-11-26T13:13:15.164Z,17.77
2022-11-26T13:17:43.438Z,17.57
2022-11-26T13:22:28.364Z,22.63
2022-11-26T13:27:07.765Z,17.38
2022-11-26T13:31:46.770Z,28.43
2022-11-26T13:36:37.132Z,25.87
2022-11-26T13:41:34.933Z,29.57
2022-11-26T13:46:11.965Z,25.67
2022-11-26T13:50:51.834Z,30.88
2022-11-26T13:55:27.588Z,33.07
2022-11-26T13:59:32.043Z,26.35
2022-11-26T14:03:45.764Z,27.53
2022-11-26T14:07:51.212Z,37.90
2022-11-26T14:11:57.582Z,27.83
2022-11-26T14:16:03.081Z,24.75
2022-11-26T14:20:11.584Z,19.20
2022-11-26T14:24:51.500Z,30.90
2022-11-26T14:29:06.112Z,30.27
2022-11-26T14:33:51.454Z,24.90
2022-11-26T14:37:57.075Z,30.77
2022-11-26T14:42:31.014Z,29.53
2022-11-26T14:47:12.709Z,23.50
2022-11-26T14:51:44.693Z,25.13
2022-11-26T14:56:20.064Z,31.90
2022-11-26T15:01:08.497Z,31.30
2022-11-26T15:06:06.110Z,32.80
2022-11-26T15:10:21.025Z,27.17
2022-11-26T15:14:46.757Z,28.60
2022-11-26T15:19:21.103Z,22.43
2022-11-26T15:23:58.633Z,25.77
2022-11-26T15:28:06.518Z,28.17
2022-11-26T15:32:37.305Z,30.07
2022-11-26T15:37:14.251Z,22.40
2022-11-26T15:41:20.897Z,25.37
2022-11-26T15:45:54.255Z,23.17
2022-11-26T15:50:30.207Z,23.40
2022-11-26T15:54:56.680Z,23.37
2022-11-26T15:59:40.589Z,29.80
2022-11-26T16:03:46.996Z,31.30
2022-11-26T16:07:58.797Z,30.33
2022-11-26T16:12:27.807Z,30.63
2022-11-26T16:17:08.461Z,38.67
2022-11-26T16:21:19.295Z,37.13
2022-11-26T16:26:06.737Z,34.00
2022-11-26T16:30:32.991Z,38.03
2022-11-26T16:35:17.516Z,34.77
2022-11-26T16:39:29.890Z,43.60
2022-11-26T16:44:05.033Z,42.17
2022-11-26T16:48:41.689Z,51.43
2022-11-26T16:52:44.693Z,40.07
2022-11-26T16:56:50.664Z,36.93
2022-11-26T17:01:28.293Z,37.23
2022-11-26T17:05:31.590Z,39.27
2022-11-26T17:09:34.898Z,33.93
2022-11-26T17:14:13.565Z,34.73
2022-11-26T17:18:20.286Z,42.37
2022-11-26T17:22:24.460Z,41.07
2022-11-26T17:26:27.499Z,42.87
2022-11-26T17:30:32.105Z,50.37
2022-11-26T17:34:35.266Z,53.37
2022-11-26T17:39:12.286Z,61.83
2022-11-26T17:43:15.768Z,46.07
2022-11-26T17:47:22.166Z,61.80
2022-11-26T17:51:25.229Z,116.17
2022-11-26T17:56:02.228Z,156.23
2022-11-26T18:00:39.280Z,194.43
2022-11-26T18:05:17.701Z,42.37
2022-11-26T18:09:20.769Z,70.43
2022-11-26T18:13:23.795Z,77.30
2022-11-26T18:17:27.313Z,135.23
2022-11-26T18:21:32.545Z,132.93
2022-11-26T18:26:08.041Z,237.60
2022-11-26T18:30:11.703Z,244.93
2022-11-26T18:34:14.696Z,260.37
2022-11-26T18:38:19.127Z,53.80
2022-11-26T18:42:36.521Z,174.80
2022-11-26T18:46:58.581Z,82.17
2022-11-26T18:51:01.932Z,91.37
2022-11-26T18:55:08.732Z,39.37
2022-11-26T18:59:13.609Z,89.47
2022-11-26T19:03:47.439Z,43.50
2022-11-26T19:07:50.599Z,39.70
2022-11-26T19:11:55.836Z,104.07
2022-11-26T19:15:59.390Z,54.20
2022-11-26T19:20:02.424Z,255.77
2022-11-26T19:24:36.264Z,85.90
2022-11-26T19:28:40.685Z,87.27
2022-11-26T19:33:14.559Z,198.67
2022-11-26T19:37:51.634Z,90.77
2022-11-26T19:41:55.407Z,106.53
2022-11-26T19:46:33.645Z,133.47
2022-11-26T19:51:04.441Z,339.60
2022-11-26T19:55:40.989Z,195.17
2022-11-26T20:00:17.972Z,293.27
2022-11-26T20:04:56.705Z,172.70
2022-11-26T20:09:30.410Z,275.53
2022-11-26T20:14:09.731Z,236.23
2022-11-26T20:18:43.697Z,125.53
2022-11-26T20:23:22.500Z,117.47
2022-11-26T20:27:58.251Z,123.50
2022-11-26T20:32:35.687Z,106.20
2022-11-26T20:36:39.141Z,99.87
2022-11-26T20:40:44.644Z,195.83
2022-11-26T20:44:47.727Z,245.10
2022-11-26T20:48:50.698Z,134.13
2022-11-26T20:53:27.469Z,219.60
2022-11-26T20:58:05.772Z,127.23
2022-11-26T21:02:39.776Z,196.43
2022-11-26T21:07:16.500Z,175.43
2022-11-26T21:11:53.468Z,149.13
2022-11-26T21:15:57.856Z,152.60
2022-11-26T21:20:00.881Z,210.23
2022-11-26T21:24:04.761Z,177.33
2022-11-26T21:28:08.265Z,128.80
2022-11-26T21:32:46.710Z,191.57
2022-11-26T21:36:49.668Z,173.17
2022-11-26T21:40:52.674Z,226.77
2022-11-26T21:44:55.662Z,179.10
2022-11-26T21:49:00.317Z,200.40
2022-11-26T21:53:03.333Z,157.53
2022-11-26T21:57:06.412Z,96.27
2022-11-26T22:01:13.118Z,77.23
2022-11-26T22:05:17.600Z,63.43
2022-11-26T22:09:51.507Z,97.77
2022-11-26T22:13:55.356Z,120.27
2022-11-26T22:17:58.439Z,160.87
2022-11-26T22:22:02.820Z,162.93
2022-11-26T22:26:36.754Z,95.60
2022-11-26T22:30:39.863Z,96.27
2022-11-26T22:34:42.888Z,59.00
2022-11-26T22:38:47.655Z,103.30
2022-11-26T22:42:50.673Z,47.93
2022-11-26T22:46:53.631Z,76.47
2022-11-26T22:50:57.047Z,35.07
2022-11-26T22:55:01.512Z,48.77
2022-11-26T22:59:05.421Z,212.33
2022-11-26T23:03:09.213Z,170.07
2022-11-26T23:07:12.394Z,35.27
2022-11-26T23:11:19.307Z,40.00
2022-11-26T23:15:53.134Z,46.23
2022-11-26T23:19:56.158Z,61.40
2022-11-26T23:23:59.609Z,60.57
2022-11-26T23:28:04.224Z,97.20
2022-11-26T23:32:07.256Z,47.90
2022-11-26T23:36:43.867Z,62.67
2022-11-26T23:40:53.759Z,134.83
2022-11-26T23:44:58.150Z,58.73
2022-11-26T23:49:01.155Z,38.90
2022-11-26T23:53:38.655Z,42.93
2022-11-26T23:57:41.656Z,67.07
